sensor_id;sensor_type;location;lat;lon;timestamp;pressure;altitude;pressure_sealevel;temperature;humidity
59831;BME280;45711;50.108;13.712;2022-07-05T00:02:11;98035.84;;;18.16;75.12
59831;BME280;45711;50.108;13.712;2022-07-05T00:04:37;98031.09;;;18.13;75.23
59831;BME280;45711;50.108;13.712;2022-07-05T00:07:03;98033.03;;;18.03;75.32
59831;BME280;45711;50.108;13.712;2022-07-05T00:09:44;98032.06;;;18.08;74.56
59831;BME280;45711;50.108;13.712;2022-07-05T00:12:10;98030.59;;;18.11;73.76
59831;BME280;45711;50.108;13.712;2022-07-05T00:14:38;98035.91;;;17.98;73.63
59831;BME280;45711;50.108;13.712;2022-07-05T00:17:06;98031.56;;;18.06;73.77
59831;BME280;45711;50.108;13.712;2022-07-05T00:19:32;98029.38;;;17.99;73.82
59831;BME280;45711;50.108;13.712;2022-07-05T00:21:58;98035.91;;;17.98;73.11
59831;BME280;45711;50.108;13.712;2022-07-05T00:24:23;98032.72;;;17.96;73.76
59831;BME280;45711;50.108;13.712;2022-07-05T00:26:49;98024.59;;;17.96;73.68
59831;BME280;45711;50.108;13.712;2022-07-05T00:29:15;98026.94;;;18.06;72.96
59831;BME280;45711;50.108;13.712;2022-07-05T00:31:40;98026.50;;;18.04;72.93
59831;BME280;45711;50.108;13.712;2022-07-05T00:34:07;98017.94;;;17.94;73.04
59831;BME280;45711;50.108;13.712;2022-07-05T00:36:33;98027.53;;;17.82;73.93
59831;BME280;45711;50.108;13.712;2022-07-05T00:38:59;98024.19;;;17.68;74.75
59831;BME280;45711;50.108;13.712;2022-07-05T00:41:25;98032.13;;;17.73;74.49
59831;BME280;45711;50.108;13.712;2022-07-05T00:43:56;98033.41;;;17.58;74.24
59831;BME280;45711;50.108;13.712;2022-07-05T00:46:23;98026.09;;;17.68;74.16
59831;BME280;45711;50.108;13.712;2022-07-05T00:48:49;98034.53;;;17.66;74.72
59831;BME280;45711;50.108;13.712;2022-07-05T00:51:16;98032.13;;;17.73;74.21
59831;BME280;45711;50.108;13.712;2022-07-05T00:53:42;98022.75;;;17.53;75.88
59831;BME280;45711;50.108;13.712;2022-07-05T00:56:11;98025.81;;;17.52;76.09
59831;BME280;45711;50.108;13.712;2022-07-05T00:58:38;98019.91;;;17.50;76.01
59831;BME280;45711;50.108;13.712;2022-07-05T01:01:05;98024.22;;;17.42;76.20
59831;BME280;45711;50.108;13.712;2022-07-05T01:03:31;98023.91;;;17.26;76.57
59831;BME280;45711;50.108;13.712;2022-07-05T01:05:58;98019.44;;;17.39;76.27
59831;BME280;45711;50.108;13.712;2022-07-05T01:08:25;98023.91;;;17.44;75.73
59831;BME280;45711;50.108;13.712;2022-07-05T01:10:52;98020.09;;;17.36;76.32
59831;BME280;45711;50.108;13.712;2022-07-05T01:13:22;98024.53;;;17.41;75.66
59831;BME280;45711;50.108;13.712;2022-07-05T01:15:48;98025.66;;;17.31;74.51
59831;BME280;45711;50.108;13.712;2022-07-05T01:18:14;98020.88;;;17.28;74.76
59831;BME280;45711;50.108;13.712;2022-07-05T01:20:41;98023.44;;;17.24;75.01
59831;BME280;45711;50.108;13.712;2022-07-05T01:23:08;98020.59;;;17.29;75.09
59831;BME280;45711;50.108;13.712;2022-07-05T01:25:34;98016.13;;;17.33;74.66
59831;BME280;45711;50.108;13.712;2022-07-05T01:28:00;98015.97;;;17.21;74.29
59831;BME280;45711;50.108;13.712;2022-07-05T01:30:26;98009.28;;;17.10;74.82
59831;BME280;45711;50.108;13.712;2022-07-05T01:32:52;98009.59;;;17.08;74.76
59831;BME280;45711;50.108;13.712;2022-07-05T01:35:18;98013.25;;;17.04;75.92
59831;BME280;45711;50.108;13.712;2022-07-05T01:37:49;98013.91;;;17.01;75.14
59831;BME280;45711;50.108;13.712;2022-07-05T01:40:17;98014.38;;;17.03;75.35
59831;BME280;45711;50.108;13.712;2022-07-05T01:42:43;98016.44;;;17.15;74.52
59831;BME280;45711;50.108;13.712;2022-07-05T01:45:09;98013.91;;;17.01;74.50
59831;BME280;45711;50.108;13.712;2022-07-05T01:47:36;98002.44;;;17.04;74.53
59831;BME280;45711;50.108;13.712;2022-07-05T01:50:04;98008.31;;;16.89;74.85
59831;BME280;45711;50.108;13.712;2022-07-05T01:52:33;98010.88;;;16.85;74.75
59831;BME280;45711;50.108;13.712;2022-07-05T01:55:03;98011.84;;;16.89;74.50
59831;BME280;45711;50.108;13.712;2022-07-05T01:57:30;98009.44;;;16.88;74.50
59831;BME280;45711;50.108;13.712;2022-07-05T01:59:56;98007.84;;;16.87;74.61
59831;BME280;45711;50.108;13.712;2022-07-05T02:02:21;98015.63;;;16.97;74.59
59831;BME280;45711;50.108;13.712;2022-07-05T02:04:47;98019.47;;;16.87;75.04
59831;BME280;45711;50.108;13.712;2022-07-05T02:07:13;98015.16;;;16.77;74.45
59831;BME280;45711;50.108;13.712;2022-07-05T02:09:38;98020.03;;;16.67;74.58
59831;BME280;45711;50.108;13.712;2022-07-05T02:12:05;98021.31;;;16.69;74.33
59831;BME280;45711;50.108;13.712;2022-07-05T02:14:32;98014.47;;;16.63;73.73
59831;BME280;45711;50.108;13.712;2022-07-05T02:16:58;98017.81;;;16.60;73.93
59831;BME280;45711;50.108;13.712;2022-07-05T02:19:24;98014.75;;;16.53;74.67
59831;BME280;45711;50.108;13.712;2022-07-05T02:21:49;98018.75;;;16.55;74.64
59831;BME280;45711;50.108;13.712;2022-07-05T02:24:15;98024.47;;;16.63;74.80
59831;BME280;45711;50.108;13.712;2022-07-05T02:26:41;98029.84;;;16.54;74.78
59831;BME280;45711;50.108;13.712;2022-07-05T02:29:06;98032.88;;;16.52;74.37
59831;BME280;45711;50.108;13.712;2022-07-05T02:31:34;98030.66;;;16.54;74.74
59831;BME280;45711;50.108;13.712;2022-07-05T02:33:59;98043.53;;;16.66;75.41
59831;BME280;45711;50.108;13.712;2022-07-05T02:36:25;98045.91;;;16.50;76.86
59831;BME280;45711;50.108;13.712;2022-07-05T02:38:51;98041.63;;;16.58;74.94
59831;BME280;45711;50.108;13.712;2022-07-05T02:41:17;98047.69;;;16.64;75.87
59831;BME280;45711;50.108;13.712;2022-07-05T02:43:43;98049.78;;;16.75;74.86
59831;BME280;45711;50.108;13.712;2022-07-05T02:46:09;98050.25;;;16.69;74.26
59831;BME280;45711;50.108;13.712;2022-07-05T02:48:37;98052.31;;;16.72;74.31
59831;BME280;45711;50.108;13.712;2022-07-05T02:51:03;98051.19;;;16.64;73.79
59831;BME280;45711;50.108;13.712;2022-07-05T02:53:29;98052.50;;;16.75;72.58
59831;BME280;45711;50.108;13.712;2022-07-05T02:55:55;98049.00;;;16.83;72.41
59831;BME280;45711;50.108;13.712;2022-07-05T02:58:21;98053.47;;;16.79;74.21
59831;BME280;45711;50.108;13.712;2022-07-05T03:00:48;98054.91;;;16.86;73.99
59831;BME280;45711;50.108;13.712;2022-07-05T03:03:13;98051.25;;;16.90;73.21
59831;BME280;45711;50.108;13.712;2022-07-05T03:05:41;98050.94;;;16.83;73.44
59831;BME280;45711;50.108;13.712;2022-07-05T03:08:06;98055.31;;;16.70;74.28
59831;BME280;45711;50.108;13.712;2022-07-05T03:10:32;98053.16;;;16.72;73.67
59831;BME280;45711;50.108;13.712;2022-07-05T03:12:58;98055.38;;;16.79;73.99
59831;BME280;45711;50.108;13.712;2022-07-05T03:15:24;98068.78;;;16.53;75.43
59831;BME280;45711;50.108;13.712;2022-07-05T03:17:50;98072.72;;;16.38;76.20
59831;BME280;45711;50.108;13.712;2022-07-05T03:20:16;98070.78;;;16.30;76.11
59831;BME280;45711;50.108;13.712;2022-07-05T03:22:43;98068.72;;;16.36;76.08
59831;BME280;45711;50.108;13.712;2022-07-05T03:25:09;98070.16;;;16.33;76.22
59831;BME280;45711;50.108;13.712;2022-07-05T03:27:34;98082.47;;;16.56;75.30
59831;BME280;45711;50.108;13.712;2022-07-05T03:30:00;98083.59;;;16.64;75.31
59831;BME280;45711;50.108;13.712;2022-07-05T03:32:26;98092.34;;;16.61;74.99
59831;BME280;45711;50.108;13.712;2022-07-05T03:34:52;98094.25;;;16.61;74.51
59831;BME280;45711;50.108;13.712;2022-07-05T03:37:20;98097.88;;;16.56;74.16
59831;BME280;45711;50.108;13.712;2022-07-05T03:39:50;98091.88;;;16.68;73.36
59831;BME280;45711;50.108;13.712;2022-07-05T03:42:16;98101.84;;;16.58;73.83
59831;BME280;45711;50.108;13.712;2022-07-05T03:44:48;98095.50;;;16.54;73.79
59831;BME280;45711;50.108;13.712;2022-07-05T03:47:13;98102.78;;;16.54;73.94
59831;BME280;45711;50.108;13.712;2022-07-05T03:49:40;98096.94;;;16.61;73.25
59831;BME280;45711;50.108;13.712;2022-07-05T03:52:05;98095.84;;;16.70;72.74
59831;BME280;45711;50.108;13.712;2022-07-05T03:54:31;98103.84;;;16.84;71.98
59831;BME280;45711;50.108;13.712;2022-07-05T03:57:01;98106.78;;;17.05;71.18
59831;BME280;45711;50.108;13.712;2022-07-05T03:59:27;98108.81;;;16.82;71.86
59831;BME280;45711;50.108;13.712;2022-07-05T04:01:56;98112.63;;;16.81;72.04
59831;BME280;45711;50.108;13.712;2022-07-05T04:04:21;98107.66;;;16.74;72.79
59831;BME280;45711;50.108;13.712;2022-07-05T04:06:47;98106.25;;;16.77;72.66
59831;BME280;45711;50.108;13.712;2022-07-05T04:09:15;98109.75;;;16.77;72.73
59831;BME280;45711;50.108;13.712;2022-07-05T04:11:41;98113.06;;;16.74;72.62
59831;BME280;45711;50.108;13.712;2022-07-05T04:14:11;98115.16;;;16.77;72.43
59831;BME280;45711;50.108;13.712;2022-07-05T04:16:43;98110.34;;;16.74;72.91
59831;BME280;45711;50.108;13.712;2022-07-05T04:19:14;98116.75;;;16.87;71.96
59831;BME280;45711;50.108;13.712;2022-07-05T04:21:39;98118.66;;;16.87;71.90
59831;BME280;45711;50.108;13.712;2022-07-05T04:24:06;98121.22;;;16.92;71.82
59831;BME280;45711;50.108;13.712;2022-07-05T04:26:35;98114.88;;;17.05;71.21
59831;BME280;45711;50.108;13.712;2022-07-05T04:29:07;98110.41;;;17.00;70.31
59831;BME280;45711;50.108;13.712;2022-07-05T04:31:33;98119.81;;;17.03;70.87
59831;BME280;45711;50.108;13.712;2022-07-05T04:34:06;98115.84;;;17.09;69.88
59831;BME280;45711;50.108;13.712;2022-07-05T04:36:40;98120.78;;;16.98;70.45
59831;BME280;45711;50.108;13.712;2022-07-05T04:39:20;98118.22;;;17.02;69.73
59831;BME280;45711;50.108;13.712;2022-07-05T04:41:46;98125.88;;;17.08;70.04
59831;BME280;45711;50.108;13.712;2022-07-05T04:44:15;98128.09;;;17.15;70.52
59831;BME280;45711;50.108;13.712;2022-07-05T04:46:43;98130.78;;;17.15;69.41
59831;BME280;45711;50.108;13.712;2022-07-05T04:49:19;98136.06;;;17.20;69.81
59831;BME280;45711;50.108;13.712;2022-07-05T04:51:50;98139.41;;;17.17;69.24
59831;BME280;45711;50.108;13.712;2022-07-05T04:54:20;98142.91;;;17.26;69.93
59831;BME280;45711;50.108;13.712;2022-07-05T04:56:54;98131.16;;;17.31;69.52
59831;BME280;45711;50.108;13.712;2022-07-05T04:59:24;98132.44;;;17.42;68.33
59831;BME280;45711;50.108;13.712;2022-07-05T05:01:51;98134.19;;;17.38;68.59
59831;BME280;45711;50.108;13.712;2022-07-05T05:04:17;98132.09;;;17.52;68.49
59831;BME280;45711;50.108;13.712;2022-07-05T05:06:43;98134.97;;;17.65;68.01
59831;BME280;45711;50.108;13.712;2022-07-05T05:09:09;98138.50;;;17.82;67.40
59831;BME280;45711;50.108;13.712;2022-07-05T05:11:34;98134.97;;;17.73;67.57
59831;BME280;45711;50.108;13.712;2022-07-05T05:14:00;98128.78;;;17.81;67.30
59831;BME280;45711;50.108;13.712;2022-07-05T05:16:27;98131.34;;;17.87;66.78
59831;BME280;45711;50.108;13.712;2022-07-05T05:18:53;98136.59;;;17.74;67.25
59831;BME280;45711;50.108;13.712;2022-07-05T05:21:19;98140.38;;;18.08;67.17
59831;BME280;45711;50.108;13.712;2022-07-05T05:23:44;98141.50;;;18.07;67.15
59831;BME280;45711;50.108;13.712;2022-07-05T05:26:10;98143.25;;;18.03;67.17
59831;BME280;45711;50.108;13.712;2022-07-05T05:28:36;98145.03;;;17.90;68.21
59831;BME280;45711;50.108;13.712;2022-07-05T05:31:04;98146.63;;;17.91;68.50
59831;BME280;45711;50.108;13.712;2022-07-05T05:33:34;98143.72;;;18.05;66.93
59831;BME280;45711;50.108;13.712;2022-07-05T05:36:00;98141.66;;;17.84;67.13
59831;BME280;45711;50.108;13.712;2022-07-05T05:38:26;98143.13;;;17.91;67.68
59831;BME280;45711;50.108;13.712;2022-07-05T05:40:54;98146.09;;;18.06;67.54
59831;BME280;45711;50.108;13.712;2022-07-05T05:43:20;98146.25;;;18.10;67.71
59831;BME280;45711;50.108;13.712;2022-07-05T05:45:45;98151.13;;;18.43;65.35
59831;BME280;45711;50.108;13.712;2022-07-05T05:48:13;98151.09;;;18.51;64.01
59831;BME280;45711;50.108;13.712;2022-07-05T05:50:40;98153.09;;;18.63;62.62
59831;BME280;45711;50.108;13.712;2022-07-05T05:53:08;98156.78;;;18.58;62.45
59831;BME280;45711;50.108;13.712;2022-07-05T05:55:34;98156.72;;;18.84;61.49
59831;BME280;45711;50.108;13.712;2022-07-05T05:58:10;98164.72;;;18.81;61.62
59831;BME280;45711;50.108;13.712;2022-07-05T06:00:37;98167.56;;;18.84;62.09
59831;BME280;45711;50.108;13.712;2022-07-05T06:03:02;98164.53;;;18.86;60.57
59831;BME280;45711;50.108;13.712;2022-07-05T06:05:28;98164.59;;;19.07;61.17
59831;BME280;45711;50.108;13.712;2022-07-05T06:08:00;98165.44;;;19.20;61.04
59831;BME280;45711;50.108;13.712;2022-07-05T06:10:30;98170.59;;;19.42;59.93
59831;BME280;45711;50.108;13.712;2022-07-05T06:13:00;98173.25;;;19.51;58.16
59831;BME280;45711;50.108;13.712;2022-07-05T06:15:27;98177.50;;;19.81;58.12
59831;BME280;45711;50.108;13.712;2022-07-05T06:17:56;98177.06;;;19.50;58.61
59831;BME280;45711;50.108;13.712;2022-07-05T06:20:25;98177.19;;;19.53;58.46
59831;BME280;45711;50.108;13.712;2022-07-05T06:22:52;98177.09;;;19.92;57.98
59831;BME280;45711;50.108;13.712;2022-07-05T06:25:22;98184.97;;;19.84;57.97
59831;BME280;45711;50.108;13.712;2022-07-05T06:27:51;98181.72;;;19.91;57.78
59831;BME280;45711;50.108;13.712;2022-07-05T06:30:18;98192.00;;;20.19;57.43
59831;BME280;45711;50.108;13.712;2022-07-05T06:32:47;98186.53;;;20.40;55.50
59831;BME280;45711;50.108;13.712;2022-07-05T06:35:15;98197.41;;;20.73;54.56
59831;BME280;45711;50.108;13.712;2022-07-05T06:37:43;98192.63;;;20.70;52.91
59831;BME280;45711;50.108;13.712;2022-07-05T06:40:09;98190.59;;;20.79;53.60
59831;BME280;45711;50.108;13.712;2022-07-05T06:42:42;98198.78;;;20.91;52.41
59831;BME280;45711;50.108;13.712;2022-07-05T06:45:08;98208.16;;;20.94;53.80
59831;BME280;45711;50.108;13.712;2022-07-05T06:47:34;98202.72;;;21.30;52.58
59831;BME280;45711;50.108;13.712;2022-07-05T06:50:00;98193.53;;;21.23;50.65
59831;BME280;45711;50.108;13.712;2022-07-05T06:52:28;98199.47;;;21.25;54.80
59831;BME280;45711;50.108;13.712;2022-07-05T06:54:53;98195.03;;;21.08;49.44
59831;BME280;45711;50.108;13.712;2022-07-05T06:57:20;98195.34;;;21.31;50.79
59831;BME280;45711;50.108;13.712;2022-07-05T06:59:50;98194.91;;;21.41;50.44
59831;BME280;45711;50.108;13.712;2022-07-05T07:02:19;98202.28;;;21.53;54.67
59831;BME280;45711;50.108;13.712;2022-07-05T07:04:45;98200.75;;;21.68;50.80
59831;BME280;45711;50.108;13.712;2022-07-05T07:07:14;98194.63;;;21.71;50.34
59831;BME280;45711;50.108;13.712;2022-07-05T07:10:02;98192.22;;;21.81;50.03
59831;BME280;45711;50.108;13.712;2022-07-05T07:12:37;98194.28;;;21.72;49.00
59831;BME280;45711;50.108;13.712;2022-07-05T07:15:11;98206.25;;;23.47;45.48
59831;BME280;45711;50.108;13.712;2022-07-05T07:17:39;98192.06;;;25.26;42.97
59831;BME280;45711;50.108;13.712;2022-07-05T07:20:07;98203.00;;;25.79;43.37
59831;BME280;45711;50.108;13.712;2022-07-05T07:22:36;98201.41;;;26.83;40.34
59831;BME280;45711;50.108;13.712;2022-07-05T07:25:07;98199.16;;;25.57;41.01
59831;BME280;45711;50.108;13.712;2022-07-05T07:27:52;98193.94;;;26.84;39.77
59831;BME280;45711;50.108;13.712;2022-07-05T07:30:27;98198.53;;;26.69;37.55
59831;BME280;45711;50.108;13.712;2022-07-05T07:33:04;98188.19;;;23.77;42.72
59831;BME280;45711;50.108;13.712;2022-07-05T07:35:34;98182.94;;;26.39;41.50
59831;BME280;45711;50.108;13.712;2022-07-05T07:38:07;98198.00;;;27.52;38.33
59831;BME280;45711;50.108;13.712;2022-07-05T07:40:39;98191.28;;;28.26;35.31
59831;BME280;45711;50.108;13.712;2022-07-05T07:43:18;98186.56;;;28.26;38.44
59831;BME280;45711;50.108;13.712;2022-07-05T07:45:55;98182.88;;;27.21;41.12
59831;BME280;45711;50.108;13.712;2022-07-05T07:48:44;98183.81;;;27.43;36.68
59831;BME280;45711;50.108;13.712;2022-07-05T07:51:33;98183.44;;;28.31;34.22
59831;BME280;45711;50.108;13.712;2022-07-05T07:54:02;98193.41;;;29.04;31.93
59831;BME280;45711;50.108;13.712;2022-07-05T07:58:55;98186.66;;;28.62;35.44
59831;BME280;45711;50.108;13.712;2022-07-05T07:59:36;98200.81;;;28.93;36.59
59831;BME280;45711;50.108;13.712;2022-07-05T08:02:29;98187.34;;;28.23;38.70
59831;BME280;45711;50.108;13.712;2022-07-05T08:05:24;98188.66;;;29.01;32.65
59831;BME280;45711;50.108;13.712;2022-07-05T08:09:09;98188.53;;;28.33;33.52
59831;BME280;45711;50.108;13.712;2022-07-05T08:11:56;98183.75;;;28.09;34.16
59831;BME280;45711;50.108;13.712;2022-07-05T08:14:35;98185.38;;;27.40;35.68
59831;BME280;45711;50.108;13.712;2022-07-05T08:17:09;98175.81;;;26.72;40.53
59831;BME280;45711;50.108;13.712;2022-07-05T08:19:49;98174.75;;;26.43;35.77
59831;BME280;45711;50.108;13.712;2022-07-05T08:22:38;98183.28;;;25.70;40.26
59831;BME280;45711;50.108;13.712;2022-07-05T08:25:09;98179.09;;;25.50;45.11
59831;BME280;45711;50.108;13.712;2022-07-05T08:27:35;98170.59;;;26.22;38.05
59831;BME280;45711;50.108;13.712;2022-07-05T08:30:04;98181.19;;;26.24;37.79
59831;BME280;45711;50.108;13.712;2022-07-05T08:33:04;98173.38;;;26.63;41.92
59831;BME280;45711;50.108;13.712;2022-07-05T08:35:47;98178.25;;;26.06;39.40
59831;BME280;45711;50.108;13.712;2022-07-05T08:38:13;98169.63;;;26.41;43.15
59831;BME280;45711;50.108;13.712;2022-07-05T08:40:47;98181.91;;;26.17;42.87
59831;BME280;45711;50.108;13.712;2022-07-05T08:43:21;98178.03;;;25.88;40.72
59831;BME280;45711;50.108;13.712;2022-07-05T08:48:52;98175.69;;;26.24;39.88
59831;BME280;45711;50.108;13.712;2022-07-05T08:51:42;98169.97;;;26.02;42.58
59831;BME280;45711;50.108;13.712;2022-07-05T08:54:16;98162.78;;;26.62;41.42
59831;BME280;45711;50.108;13.712;2022-07-05T08:56:52;98169.50;;;26.68;35.31
59831;BME280;45711;50.108;13.712;2022-07-05T08:59:24;98167.00;;;27.55;33.02
59831;BME280;45711;50.108;13.712;2022-07-05T09:01:58;98172.19;;;27.71;37.77
59831;BME280;45711;50.108;13.712;2022-07-05T09:04:45;98161.09;;;26.13;38.47
59831;BME280;45711;50.108;13.712;2022-07-05T09:07:34;98167.63;;;26.01;41.50
59831;BME280;45711;50.108;13.712;2022-07-05T09:10:29;98167.28;;;26.84;38.40
59831;BME280;45711;50.108;13.712;2022-07-05T09:19:36;98159.81;;;27.33;36.75
59831;BME280;45711;50.108;13.712;2022-07-05T09:22:08;98156.78;;;27.55;33.96
59831;BME280;45711;50.108;13.712;2022-07-05T09:28:02;98156.91;;;26.63;37.62
59831;BME280;45711;50.108;13.712;2022-07-05T09:30:53;98151.81;;;27.10;36.26
59831;BME280;45711;50.108;13.712;2022-07-05T09:33:22;98151.97;;;26.01;44.15
59831;BME280;45711;50.108;13.712;2022-07-05T09:36:05;98152.19;;;26.23;42.58
59831;BME280;45711;50.108;13.712;2022-07-05T09:39:03;98157.06;;;26.77;37.38
59831;BME280;45711;50.108;13.712;2022-07-05T09:41:48;98146.09;;;26.40;39.72
59831;BME280;45711;50.108;13.712;2022-07-05T09:44:56;98152.38;;;26.41;38.72
59831;BME280;45711;50.108;13.712;2022-07-05T09:47:30;98150.81;;;27.36;35.22
59831;BME280;45711;50.108;13.712;2022-07-05T09:49:56;98151.69;;;27.58;36.64
59831;BME280;45711;50.108;13.712;2022-07-05T09:52:34;98150.63;;;27.76;33.67
59831;BME280;45711;50.108;13.712;2022-07-05T09:55:10;98148.59;;;27.66;35.78
59831;BME280;45711;50.108;13.712;2022-07-05T09:58:14;98144.16;;;26.03;41.01
59831;BME280;45711;50.108;13.712;2022-07-05T10:00:53;98144.69;;;25.83;43.77
59831;BME280;45711;50.108;13.712;2022-07-05T10:06:33;98147.78;;;26.15;40.01
59831;BME280;45711;50.108;13.712;2022-07-05T10:10:21;98149.75;;;26.51;41.78
59831;BME280;45711;50.108;13.712;2022-07-05T10:12:31;98147.66;;;26.00;42.40
59831;BME280;45711;50.108;13.712;2022-07-05T10:15:27;98147.53;;;26.27;42.53
59831;BME280;45711;50.108;13.712;2022-07-05T10:18:04;98144.72;;;27.09;36.04
59831;BME280;45711;50.108;13.712;2022-07-05T10:20:45;98145.19;;;26.66;40.05
59831;BME280;45711;50.108;13.712;2022-07-05T10:23:33;98155.53;;;27.42;39.79
59831;BME280;45711;50.108;13.712;2022-07-05T10:26:06;98150.28;;;27.16;37.95
59831;BME280;45711;50.108;13.712;2022-07-05T10:28:44;98150.53;;;27.00;40.21
59831;BME280;45711;50.108;13.712;2022-07-05T10:31:13;98149.53;;;26.33;43.76
59831;BME280;45711;50.108;13.712;2022-07-05T10:33:45;98164.44;;;25.95;42.63
59831;BME280;45711;50.108;13.712;2022-07-05T10:36:31;98162.28;;;26.49;35.45
59831;BME280;45711;50.108;13.712;2022-07-05T10:39:08;98150.84;;;26.06;37.90
59831;BME280;45711;50.108;13.712;2022-07-05T10:41:43;98160.88;;;27.14;35.99
59831;BME280;45711;50.108;13.712;2022-07-05T10:47:19;98161.81;;;25.46;43.05
59831;BME280;45711;50.108;13.712;2022-07-05T11:24:30;98139.69;;;26.25;43.31
59831;BME280;45711;50.108;13.712;2022-07-05T11:27:04;98129.53;;;25.92;38.08
59831;BME280;45711;50.108;13.712;2022-07-05T11:37:42;98112.38;;;26.40;40.88
59831;BME280;45711;50.108;13.712;2022-07-05T11:43:09;98109.63;;;25.65;43.27
59831;BME280;45711;50.108;13.712;2022-07-05T11:45:46;98109.41;;;25.51;44.00
59831;BME280;45711;50.108;13.712;2022-07-05T11:48:29;98110.69;;;25.57;44.36
59831;BME280;45711;50.108;13.712;2022-07-05T11:51:32;98110.72;;;25.91;42.98
59831;BME280;45711;50.108;13.712;2022-07-05T11:54:33;98107.69;;;25.99;42.44
59831;BME280;45711;50.108;13.712;2022-07-05T11:57:09;98104.91;;;25.96;42.50
59831;BME280;45711;50.108;13.712;2022-07-05T11:59:44;98096.94;;;26.65;41.25
59831;BME280;45711;50.108;13.712;2022-07-05T12:15:42;98099.59;;;25.76;42.22
59831;BME280;45711;50.108;13.712;2022-07-05T12:18:21;98097.28;;;25.78;37.49
59831;BME280;45711;50.108;13.712;2022-07-05T12:28:02;98079.34;;;26.25;34.22
59831;BME280;45711;50.108;13.712;2022-07-05T12:34:23;98077.69;;;26.58;34.07
59831;BME280;45711;50.108;13.712;2022-07-05T12:44:00;98071.25;;;26.43;34.39
59831;BME280;45711;50.108;13.712;2022-07-05T12:50:02;98066.00;;;26.72;39.44
59831;BME280;45711;50.108;13.712;2022-07-05T12:53:22;98073.50;;;25.90;43.29
59831;BME280;45711;50.108;13.712;2022-07-05T13:03:05;98082.31;;;26.50;39.90
59831;BME280;45711;50.108;13.712;2022-07-05T13:13:05;98065.22;;;26.23;39.58
59831;BME280;45711;50.108;13.712;2022-07-05T13:23:42;98045.81;;;26.46;35.75
59831;BME280;45711;50.108;13.712;2022-07-05T13:26:13;98048.00;;;26.26;35.65
59831;BME280;45711;50.108;13.712;2022-07-05T13:29:06;98057.63;;;26.50;35.90
59831;BME280;45711;50.108;13.712;2022-07-05T13:32:05;98061.38;;;25.91;42.28
59831;BME280;45711;50.108;13.712;2022-07-05T13:35:02;98068.78;;;25.87;44.25
59831;BME280;45711;50.108;13.712;2022-07-05T13:37:48;98067.47;;;26.14;39.44
59831;BME280;45711;50.108;13.712;2022-07-05T13:47:35;98059.22;;;26.11;37.50
59831;BME280;45711;50.108;13.712;2022-07-05T13:50:05;98058.81;;;26.53;33.94
59831;BME280;45711;50.108;13.712;2022-07-05T13:52:51;98050.25;;;26.62;37.63
59831;BME280;45711;50.108;13.712;2022-07-05T13:55:17;98058.25;;;26.85;39.22
59831;BME280;45711;50.108;13.712;2022-07-05T13:57:59;98067.25;;;26.78;37.77
59831;BME280;45711;50.108;13.712;2022-07-05T14:00:31;98064.19;;;26.94;35.74
59831;BME280;45711;50.108;13.712;2022-07-05T14:06:15;98069.03;;;27.11;39.28
59831;BME280;45711;50.108;13.712;2022-07-05T14:08:58;98071.16;;;26.80;42.52
59831;BME280;45711;50.108;13.712;2022-07-05T14:11:24;98066.91;;;26.87;33.34
59831;BME280;45711;50.108;13.712;2022-07-05T14:14:06;98065.69;;;26.84;36.23
59831;BME280;45711;50.108;13.712;2022-07-05T14:16:44;98060.69;;;26.97;33.56
59831;BME280;45711;50.108;13.712;2022-07-05T14:22:46;98059.91;;;27.03;34.03
59831;BME280;45711;50.108;13.712;2022-07-05T14:25:32;98057.84;;;26.83;34.17
59831;BME280;45711;50.108;13.712;2022-07-05T14:28:31;98061.06;;;26.99;32.89
59831;BME280;45711;50.108;13.712;2022-07-05T14:31:05;98065.38;;;26.93;41.08
59831;BME280;45711;50.108;13.712;2022-07-05T14:33:45;98058.66;;;26.90;33.19
59831;BME280;45711;50.108;13.712;2022-07-05T14:36:17;98060.25;;;26.88;32.72
59831;BME280;45711;50.108;13.712;2022-07-05T14:38:55;98060.25;;;26.91;41.05
59831;BME280;45711;50.108;13.712;2022-07-05T14:41:37;98063.97;;;27.17;35.91
59831;BME280;45711;50.108;13.712;2022-07-05T14:44:07;98049.84;;;27.18;36.20
59831;BME280;45711;50.108;13.712;2022-07-05T14:46:33;98061.22;;;27.17;38.08
59831;BME280;45711;50.108;13.712;2022-07-05T14:49:09;98050.13;;;27.02;35.86
59831;BME280;45711;50.108;13.712;2022-07-05T14:51:49;98053.13;;;26.31;34.02
59831;BME280;45711;50.108;13.712;2022-07-05T14:54:29;98064.03;;;26.69;32.90
59831;BME280;45711;50.108;13.712;2022-07-05T15:00:22;98053.44;;;26.67;33.41
59831;BME280;45711;50.108;13.712;2022-07-05T15:02:57;98046.84;;;26.79;33.31
59831;BME280;45711;50.108;13.712;2022-07-05T15:05:40;98051.88;;;26.66;33.95
59831;BME280;45711;50.108;13.712;2022-07-05T15:08:17;98058.19;;;26.74;37.20
59831;BME280;45711;50.108;13.712;2022-07-05T15:10:49;98063.78;;;26.88;34.98
59831;BME280;45711;50.108;13.712;2022-07-05T15:13:27;98054.94;;;27.13;33.93
59831;BME280;45711;50.108;13.712;2022-07-05T15:18:53;98058.28;;;26.88;33.85
59831;BME280;45711;50.108;13.712;2022-07-05T15:21:22;98049.06;;;26.59;32.65
59831;BME280;45711;50.108;13.712;2022-07-05T15:23:49;98059.44;;;26.36;32.72
59831;BME280;45711;50.108;13.712;2022-07-05T15:29:39;98042.22;;;26.39;33.18
59831;BME280;45711;50.108;13.712;2022-07-05T15:32:10;98051.28;;;26.43;35.51
59831;BME280;45711;50.108;13.712;2022-07-05T15:34:46;98050.13;;;26.44;33.84
59831;BME280;45711;50.108;13.712;2022-07-05T15:37:15;98054.19;;;26.64;38.54
59831;BME280;45711;50.108;13.712;2022-07-05T15:39:57;98050.72;;;26.71;38.42
59831;BME280;45711;50.108;13.712;2022-07-05T15:42:38;98047.94;;;26.67;38.58
59831;BME280;45711;50.108;13.712;2022-07-05T15:45:35;98045.25;;;26.74;34.01